Detall de PIREP

Printer-friendly versionPDF version

[2017/01/05 17:36:00]
Flight IATA:CT1004
Pilot Number:012
Company ICAO:CAT
Aircraft Type:BE20/A
PAX:6
Departing Airport: LDSP
Destination Airport: LIEA
Alternate Airport:LIEO
Online: VATSIM
Route:VELUG Z924 OKIDO Z347 MINKA
Flight Level:F260
No Slew and time accel
No pause
Crash detect
Detect pilot in Cockpit between each 30 and 45 minutes
17:36 Zero fuel Weight: 9694 Lbs, Fuel Weight: 1444 Lbs
17:36 VATSIM:LDSP 051700Z 03018G29KT CAVOK 03/M09 Q1009 NOSIG
17:36 VATSIM:LIEA 051720Z 34007KT CAVOK 10/M06 Q1016
17:36 XMAS CHARTER
17:37 Parking Brakes off
17:41 Take-off
17:41 Take off Weight: 11122 Lbs
17:41 Wind: 029º @ 027 Knots Heading: 050º
17:41 POS N43º 32´ 28´´ E016º 18´ 07´´
17:41 Gear Up: 124 Knots
17:41 Flaps:1 at 124 Knots
17:42 Flaps:0 at 138 Knots
17:56 Wind:333º@029 Knots Heading: 232º Ground Speed: 191 Knots Altitude 23497 ft
17:57 TOC
17:57 Fuel Weight: 1221 Lb
18:11 Wind:347º@060 Knots Heading: 251º Ground Speed: 280 Knots Altitude 26978 ft
18:26 Wind:355º@083 Knots Heading: 253º Ground Speed: 294 Knots Altitude 26896 ft
18:41 Wind:355º@099 Knots Heading: 268º Ground Speed: 279 Knots Altitude 26938 ft
18:56 Wind:345º@101 Knots Heading: 271º Ground Speed: 261 Knots Altitude 27053 ft
19:00 TOD
19:00 Fuel Weight: 614 Lb
19:11 Wind:350º@064 Knots Heading: 280º Ground Speed: 261 Knots Altitude 15456 ft
19:19 Flaps:1 at 128 Knots
19:19 Gear Down: 131 Knots
19:20 Flaps:2 at 110 Knots
19:24 TouchDown:Rate -169 ft/min Speed: 94 Knots
19:24 Flaps:0 at 64 Knots
19:24 VATSIM:LIEA 051850Z 34007KT CAVOK 10/M08 Q1017
19:24 Land
19:24 Wind:338º@007 Knots
19:24 Heading: 203º
19:24 Flight Duration: 01:43
19:24 Landing Weight: 10150 Lbs
19:24 POS N40º 37´ 49´´ E008º 17´ 22´´
19:28 Parking brakes on
19:28 Block to Block Duration: 01:51
19:28 Final Fuel: 447 Lbls
19:28 Spent Fuel: 996 Lbls
19:28 Flight Length: 421 NM
19:28 TOD Land Length: 85 NM

Exportar CSV

Powered by Drupal - Modified by Danger4k